Startpagina
METAR-TAF:

METAR-TAF

Vliegvelden :

Ndjamena, Tsjaad

breedte: 12-08N, lengte: 015-02E, hoogte: 295 m

Actueel weer

Dit bericht is 1 uur en het 9 minuten geleden gemaakt, om 03:00 UTC
Wind 6 kt uit het noordoosten
Temperatuur 27°C
Vochtigheid 28%
Druk 1008 hPa
Zicht 10 km of meer
geen wolken onder 1500 m en geen cumulonimbus

METAR: FTTJ 240300Z 05006KT CAVOK 27/07 Q1008 NOSIG

Tijdstip: 05:09 (04:09 UTC)

Verwachting

Dit bericht is 5 uur en het 9 minuten geleden gemaakt, om 23:00 UTC
Verwachting geldig van 24 om 00 UTC tot 25 om 06 UTC
Wind 6 kt uit het noordnoordoosten
Zicht: 8000 m
Kans 30% :
Tijdelijke
van 24 om 04 UTC tot 24 om 10 UTC
Zicht: 2000 m
verspreid stof
Tijdelijke
van 24 om 08 UTC tot 24 om 14 UTC
Wind 12 kt uit het oosten

TAF: FTTJ 232300Z 2400/2506 02006KT 8000 NSC PROB30 TEMPO 2404/2410 2000 DU TEMPO 2408/2414 08012KT

Waarnemingen en weersverwachtingen van meer dan 4000 vliegvelden (METAR en TAF).

De beschikbare stations zijn de gele en rode punten op de kaart.

Ga met uw muis naar het station om de naam te zien.

Klik dan om waarnemingen en weersverwachtingen te zien.

kaart wijzigen: klik op de groene knoppen met een zwart kruis om in te zoomen, op de groene knop met een streepje om uit te zoomen of op de groene pijlen voor aangrenzende kaarten.


METAR-TAF: